Time;durP1;ratioP1;P1;durP2;ratioP2;P2;SDS_P1;SDS_P2;PMS_P1;PMS_P2;Temp;Humidity;BMP_temperature;BMP_pressure;BME280_temperature;BME280_humidity;BME280_pressure;Samples;Min_cycle;Max_cycle;Signal;HPM_P1;HPM_P2
2022/01/21 00:01:52;;;;;;;14.20;3.03;;;;;;;0.45;100.00;102645.16;5000549;28;20046;-87
2022/01/21 00:04:18;;;;;;;13.98;3.17;;;;;;;0.49;100.00;102641.53;4994020;28;20052;-88
2022/01/21 00:06:45;;;;;;;19.63;4.15;;;;;;;0.50;100.00;102634.44;4999636;28;20034;-86
2022/01/21 00:09:17;;;;;;;12.43;2.95;;;;;;;0.45;100.00;102638.09;4999627;28;20054;-86
2022/01/21 00:12:01;;;;;;;16.88;3.53;;;;;;;0.52;100.00;102651.09;5004274;28;20100;-88
2022/01/21 00:14:46;;;;;;;17.02;3.80;;;;;;;0.45;100.00;102659.22;4997310;28;20042;-88
2022/01/21 00:17:22;;;;;;;18.40;3.85;;;;;;;0.41;100.00;102656.78;5003657;28;20084;-85
2022/01/21 00:30:08;;;;;;;17.50;4.00;;;;;;;0.43;100.00;102673.41;4979253;28;20056;-86
2022/01/21 00:30:55;;;;;;;15.73;4.28;;;;;;;0.33;100.00;102693.13;5013236;28;20138;-84
2022/01/21 00:33:20;;;;;;;17.65;3.88;;;;;;;0.34;100.00;102686.94;4999102;28;20052;-85
2022/01/21 00:35:48;;;;;;;15.43;3.53;;;;;;;0.32;100.00;102683.50;4983727;28;20495;-87
2022/01/21 00:38:20;;;;;;;19.95;4.53;;;;;;;0.38;100.00;102683.28;4984918;28;21006;-87
2022/01/21 00:40:48;;;;;;;16.92;3.20;;;;;;;0.37;100.00;102676.25;4978329;28;20058;-88
2022/01/21 00:43:21;;;;;;;16.40;3.92;;;;;;;0.42;100.00;102677.81;4969687;28;20065;-86
2022/01/21 00:45:47;;;;;;;17.52;3.92;;;;;;;0.39;100.00;102658.59;4978556;28;20054;-89
2022/01/21 00:48:12;;;;;;;20.02;4.43;;;;;;;0.41;100.00;102651.47;4980951;28;20038;-86
2022/01/21 00:50:40;;;;;;;19.05;4.10;;;;;;;0.39;100.00;102656.81;4982516;28;20054;-85
2022/01/21 00:53:11;;;;;;;20.83;4.28;;;;;;;0.44;100.00;102657.50;4978151;28;20660;-85
2022/01/21 00:55:48;;;;;;;22.23;4.88;;;;;;;0.43;100.00;102660.19;4965175;28;20066;-84
2022/01/21 00:58:16;;;;;;;17.00;4.10;;;;;;;0.38;100.00;102667.44;4970144;28;20053;-86
2022/01/21 01:00:44;;;;;;;23.58;4.32;;;;;;;0.47;100.00;102667.13;4972983;28;20039;-85
2022/01/21 01:03:19;;;;;;;14.02;3.92;;;;;;;0.49;100.00;102664.41;4976510;28;20035;-84
2022/01/21 01:05:48;;;;;;;17.80;4.57;;;;;;;0.41;100.00;102677.91;4972917;28;20043;-85
2022/01/21 01:08:15;;;;;;;15.50;3.95;;;;;;;0.41;100.00;102678.75;4985577;28;20034;-85
2022/01/21 01:21:44;;;;;;;16.98;4.47;;;;;;;0.25;100.00;102671.41;4975944;28;20126;-85
2022/01/21 01:29:49;;;;;;;16.67;3.90;;;;;;;0.16;100.00;102678.72;4985952;28;20150;-86
2022/01/21 01:32:20;;;;;;;19.27;3.40;;;;;;;0.10;100.00;102668.34;4979700;28;20046;-87
2022/01/21 01:34:46;;;;;;;18.13;3.47;;;;;;;0.11;100.00;102664.78;4967961;28;20042;-86
2022/01/21 01:37:26;;;;;;;11.57;2.70;;;;;;;0.09;100.00;102666.66;4986132;28;20055;-86
2022/01/21 01:40:11;;;;;;;18.75;3.47;;;;;;;0.10;100.00;102668.34;4986216;28;20054;-86
2022/01/21 01:50:58;;;;;;;15.68;4.30;;;;;;;0.12;100.00;102674.47;4996856;28;20482;-85
2022/01/21 01:53:34;;;;;;;15.25;4.10;;;;;;;0.08;100.00;102667.53;4993001;28;20100;-86
2022/01/21 01:56:01;;;;;;;14.68;3.95;;;;;;;0.03;100.00;102656.28;5009785;28;20159;-84
2022/01/21 01:58:48;;;;;;;15.63;2.95;;;;;;;0.01;100.00;102652.84;5026840;28;20037;-86
2022/01/21 02:01:15;;;;;;;18.35;3.78;;;;;;;0.05;100.00;102640.38;4999254;28;20042;-85
2022/01/21 02:03:41;;;;;;;15.70;3.35;;;;;;;0.11;100.00;102638.41;4997601;28;20041;-85
2022/01/21 02:06:10;;;;;;;15.10;3.50;;;;;;;0.12;100.00;102641.91;4987300;28;20038;-86
2022/01/21 02:08:40;;;;;;;17.23;2.65;;;;;;;0.16;100.00;102632.97;5008983;28;20254;-86
2022/01/21 02:11:05;;;;;;;15.82;2.70;;;;;;;0.17;100.00;102630.28;5006079;28;20133;-84
2022/01/21 02:13:46;;;;;;;10.43;3.13;;;;;;;0.28;100.00;102631.69;4986564;28;20176;-86
2022/01/21 02:21:42;;;;;;;20.40;3.40;;;;;;;0.42;100.00;102654.06;5020378;28;20057;-86
2022/01/21 02:24:09;;;;;;;15.57;2.22;;;;;;;0.42;100.00;102651.41;5006802;28;20056;-87
2022/01/21 02:26:45;;;;;;;17.25;3.05;;;;;;;0.47;100.00;102650.41;5004669;28;20413;-87
2022/01/21 02:29:26;;;;;;;20.10;3.03;;;;;;;0.48;100.00;102647.69;4996178;28;20050;-87
2022/01/21 02:31:54;;;;;;;14.50;3.83;;;;;;;0.53;100.00;102655.47;5003582;28;20104;-85
2022/01/21 02:34:19;;;;;;;14.40;2.92;;;;;;;0.52;100.00;102654.63;5020845;28;20046;-87
2022/01/21 02:36:47;;;;;;;13.80;2.88;;;;;;;0.54;100.00;102665.13;4996166;28;20624;-86
2022/01/21 02:39:12;;;;;;;14.90;2.60;;;;;;;0.53;100.00;102660.75;4974314;28;20049;-85
2022/01/21 02:41:38;;;;;;;13.70;2.58;;;;;;;0.58;100.00;102669.38;5006914;28;20052;-84
2022/01/21 02:44:04;;;;;;;16.08;2.38;;;;;;;0.55;100.00;102664.22;4997591;28;20042;-85
2022/01/21 02:46:35;;;;;;;16.20;2.67;;;;;;;0.52;100.00;102662.53;4996572;28;20065;-85
2022/01/21 02:49:03;;;;;;;13.82;2.85;;;;;;;0.52;100.00;102659.91;4990355;28;20041;-86
2022/01/21 02:51:35;;;;;;;13.38;2.35;;;;;;;0.54;100.00;102671.25;5003226;28;20395;-85
2022/01/21 02:54:05;;;;;;;17.90;3.65;;;;;;;0.58;100.00;102672.03;4986781;28;20688;-86
2022/01/21 02:56:35;;;;;;;15.65;3.42;;;;;;;0.58;100.00;102679.97;5005200;28;21951;-87
2022/01/21 02:59:04;;;;;;;12.70;2.83;;;;;;;0.57;100.00;102679.06;5000863;28;20046;-85
2022/01/21 03:01:38;;;;;;;14.20;2.53;;;;;;;0.63;100.00;102685.91;5000454;28;20038;-84
2022/01/21 03:04:09;;;;;;;22.75;3.08;;;;;;;0.61;100.00;102680.72;5002235;28;20046;-86
2022/01/21 03:06:37;;;;;;;14.73;2.65;;;;;;;0.61;100.00;102686.00;5019046;28;20038;-85
2022/01/21 03:09:06;;;;;;;14.25;2.80;;;;;;;0.64;100.00;102688.53;4994154;28;20090;-86
2022/01/21 03:11:33;;;;;;;14.13;2.78;;;;;;;0.65;100.00;102682.31;4990496;28;20963;-85
2022/01/21 03:13:59;;;;;;;15.77;2.78;;;;;;;0.62;100.00;102677.13;5000341;28;20045;-86
2022/01/21 03:16:40;;;;;;;10.85;1.85;;;;;;;0.56;100.00;102677.34;5007156;28;20046;-85
2022/01/21 03:19:05;;;;;;;13.95;2.83;;;;;;;0.61;100.00;102679.84;5002786;28;20046;-85
2022/01/21 03:21:37;;;;;;;11.35;2.55;;;;;;;0.62;100.00;102687.72;4991021;28;20044;-86
2022/01/21 03:24:04;;;;;;;15.20;2.85;;;;;;;0.63;100.00;102683.28;4999519;28;20437;-85
2022/01/21 03:26:29;;;;;;;13.18;2.60;;;;;;;0.61;100.00;102685.13;5004880;28;20049;-84
2022/01/21 03:29:07;;;;;;;14.68;2.30;;;;;;;0.64;100.00;102680.59;4985651;28;20411;-85
2022/01/21 03:31:39;;;;;;;14.98;2.88;;;;;;;0.64;100.00;102677.94;5005111;28;20403;-85
2022/01/21 03:34:09;;;;;;;9.63;2.22;;;;;;;0.65;100.00;102681.44;5022297;28;20445;-84
2022/01/21 03:36:46;;;;;;;9.57;1.92;;;;;;;0.63;100.00;102683.28;4997971;28;20111;-86
2022/01/21 03:39:14;;;;;;;8.60;1.98;;;;;;;0.63;100.00;102668.31;4974575;28;20046;-85
2022/01/21 03:41:40;;;;;;;17.73;2.70;;;;;;;0.69;100.00;102683.06;4989611;28;20403;-84
2022/01/21 03:44:12;;;;;;;10.65;2.10;;;;;;;0.67;100.00;102693.69;4997350;28;20133;-86
2022/01/21 03:46:44;;;;;;;10.93;2.20;;;;;;;0.71;100.00;102686.53;4993222;28;20601;-84
2022/01/21 03:49:11;;;;;;;9.27;1.85;;;;;;;0.67;100.00;102680.47;5000060;28;20503;-85
2022/01/21 03:51:36;;;;;;;9.20;2.42;;;;;;;0.72;100.00;102682.09;5005658;28;20037;-85
2022/01/21 03:54:12;;;;;;;11.05;2.25;;;;;;;0.77;100.00;102682.78;4997283;28;20287;-85
2022/01/21 03:56:44;;;;;;;11.63;2.70;;;;;;;0.79;100.00;102683.63;5001355;28;20092;-85
2022/01/21 03:59:11;;;;;;;10.43;2.03;;;;;;;0.77;100.00;102674.88;4976415;28;20038;-86
2022/01/21 04:01:38;;;;;;;11.65;2.30;;;;;;;0.78;100.00;102687.19;4989124;28;20422;-86
2022/01/21 04:04:16;;;;;;;9.65;2.25;;;;;;;0.81;100.00;102682.66;5010637;28;20120;-89
2022/01/21 04:06:42;;;;;;;12.68;2.30;;;;;;;0.76;100.00;102678.44;5009508;28;20048;-84
2022/01/21 04:09:07;;;;;;;12.75;2.70;;;;;;;0.77;100.00;102675.72;5010220;28;20038;-85
2022/01/21 04:11:32;;;;;;;11.90;2.88;;;;;;;0.79;100.00;102683.63;5024930;28;20038;-86
2022/01/21 04:13:58;;;;;;;11.63;2.58;;;;;;;0.80;100.00;102694.13;4983104;28;20042;-86
2022/01/21 04:16:23;;;;;;;10.73;2.28;;;;;;;0.82;100.00;102680.84;5009360;28;20573;-85
2022/01/21 04:18:48;;;;;;;12.10;2.97;;;;;;;0.84;100.00;102681.69;4975310;28;20516;-85
2022/01/21 04:21:14;;;;;;;13.65;2.30;;;;;;;0.85;100.00;102676.31;4999722;28;20088;-87
2022/01/21 04:23:39;;;;;;;8.15;1.70;;;;;;;0.88;100.00;102678.00;5003754;28;20471;-86
2022/01/21 04:26:05;;;;;;;17.77;2.40;;;;;;;0.90;100.00;102676.16;5008788;28;20053;-85
2022/01/21 04:28:30;;;;;;;14.55;2.30;;;;;;;0.92;100.00;102678.72;4991181;28;20047;-85
2022/01/21 04:30:57;;;;;;;10.68;1.70;;;;;;;0.91;100.00;102688.44;5009289;28;20054;-85
2022/01/21 04:33:22;;;;;;;8.85;2.22;;;;;;;0.90;100.00;102695.53;4985473;28;20169;-86
2022/01/21 04:35:48;;;;;;;12.18;2.22;;;;;;;0.96;100.00;102701.50;5025846;28;20398;-85
2022/01/21 04:38:17;;;;;;;10.35;2.13;;;;;;;0.93;100.00;102698.97;5009806;28;20068;-85
2022/01/21 04:40:57;;;;;;;10.20;2.43;;;;;;;0.95;100.00;102697.13;5009721;28;20048;-85
2022/01/21 04:48:50;;;;;;;13.68;2.20;;;;;;;0.90;100.00;102702.59;5009518;28;20053;-86
2022/01/21 04:53:43;;;;;;;12.68;2.22;;;;;;;0.88;100.00;102701.78;5009203;28;20034;-85
2022/01/21 04:56:08;;;;;;;13.05;2.85;;;;;;;0.91;100.00;102701.66;5012698;28;20049;-87
2022/01/21 04:58:34;;;;;;;10.73;2.58;;;;;;;0.89;100.00;102695.56;5012738;28;20145;-89
2022/01/21 05:01:04;;;;;;;9.60;2.50;;;;;;;0.87;100.00;102697.41;5005674;28;20046;-86
2022/01/21 05:03:29;;;;;;;;;;;;;;;0.92;100.00;102698.09;4996819;28;20640;-86
2022/01/21 05:05:55;;;;;;;13.07;3.15;;;;;;;0.83;100.00;102703.72;5021840;28;19923;-87
2022/01/21 05:08:29;;;;;;;15.20;2.97;;;;;;;0.87;100.00;102702.72;4981336;28;20068;-86
2022/01/21 05:10:54;;;;;;;13.50;3.45;;;;;;;0.89;100.00;102707.03;5007575;28;20046;-88
2022/01/21 05:13:24;;;;;;;14.25;2.65;;;;;;;0.90;100.00;102702.59;4986956;28;20099;-87
2022/01/21 05:16:03;;;;;;;17.40;2.92;;;;;;;0.89;100.00;102704.38;4995082;28;20045;-87
2022/01/21 05:18:28;;;;;;;12.88;2.55;;;;;;;0.88;100.00;102704.44;4978877;28;20034;-88
2022/01/21 05:20:54;;;;;;;7.78;2.05;;;;;;;0.88;100.00;102705.28;4994363;28;20057;-87
2022/01/21 05:23:19;;;;;;;12.00;2.20;;;;;;;0.88;100.00;102694.72;5006015;28;20038;-88
2022/01/21 05:25:45;;;;;;;8.68;2.20;;;;;;;0.87;100.00;102694.78;4994219;28;20480;-87
2022/01/21 05:28:11;;;;;;;10.80;2.70;;;;;;;0.89;100.00;102700.84;4991850;28;20034;-86
2022/01/21 05:30:36;;;;;;;13.52;3.10;;;;;;;0.92;100.00;102699.88;5004985;28;20033;-86
2022/01/21 05:33:02;;;;;;;9.77;1.98;;;;;;;0.87;100.00;102702.72;4993890;28;20045;-86
2022/01/21 05:35:27;;;;;;;12.57;2.28;;;;;;;0.85;100.00;102702.75;5002199;28;20567;-87
2022/01/21 05:37:53;;;;;;;11.50;2.30;;;;;;;0.82;100.00;102705.50;4976500;28;20038;-86
2022/01/21 05:40:20;;;;;;;8.48;2.55;;;;;;;0.87;100.00;102706.22;4992330;28;20159;-87
2022/01/21 05:42:45;;;;;;;13.50;3.00;;;;;;;0.87;100.00;102702.72;4984397;28;20121;-88
2022/01/21 05:47:55;;;;;;;9.18;2.90;;;;;;;0.78;100.00;102703.03;5004438;28;20057;-87
2022/01/21 05:50:21;;;;;;;14.50;2.78;;;;;;;0.74;100.00;102706.69;4982871;28;20042;-89
2022/01/21 05:52:47;;;;;;;12.95;2.88;;;;;;;0.76;100.00;102710.16;5008129;28;20080;-86
2022/01/21 05:55:14;;;;;;;11.68;2.47;;;;;;;0.72;100.00;102697.94;5005243;28;20042;-88
2022/01/21 05:57:40;;;;;;;10.32;2.30;;;;;;;0.63;100.00;102700.03;5000949;28;20379;-86
2022/01/21 06:00:06;;;;;;;10.55;2.58;;;;;;;0.66;100.00;102715.78;5000768;28;20045;-87
2022/01/21 06:02:32;;;;;;;11.65;2.70;;;;;;;0.68;100.00;102713.91;5006539;28;20030;-86
2022/01/21 06:04:57;;;;;;;15.65;3.10;;;;;;;0.67;100.00;102720.13;5008914;28;20104;-85
2022/01/21 06:07:23;;;;;;;11.20;3.22;;;;;;;0.61;100.00;102715.06;5006350;28;20038;-86
2022/01/21 06:09:48;;;;;;;12.32;3.05;;;;;;;0.58;100.00;102712.53;4974994;28;20042;-86
2022/01/21 06:12:14;;;;;;;10.63;2.88;;;;;;;0.58;100.00;102717.81;5007603;28;20045;-86
2022/01/21 06:14:39;;;;;;;10.75;3.30;;;;;;;0.58;100.00;102720.44;4993319;28;20038;-86
2022/01/21 06:17:05;;;;;;;17.90;4.80;;;;;;;0.65;100.00;102721.94;5008759;28;20050;-87
2022/01/21 06:19:30;;;;;;;12.27;4.43;;;;;;;0.63;100.00;102720.28;5018927;28;20053;-87
2022/01/21 06:21:57;;;;;;;15.32;4.22;;;;;;;0.64;100.00;102717.59;5002865;28;20042;-87
2022/01/21 06:24:22;;;;;;;11.52;3.53;;;;;;;0.61;100.00;102722.13;5005495;28;20049;-88
2022/01/21 06:26:48;;;;;;;9.38;3.00;;;;;;;0.58;100.00;102709.88;5005632;28;20046;-87
2022/01/21 06:29:14;;;;;;;17.67;4.05;;;;;;;0.58;100.00;102709.88;5006469;28;20449;-86
2022/01/21 06:31:39;;;;;;;8.65;3.17;;;;;;;0.60;100.00;102712.44;4988094;28;20046;-87
2022/01/21 06:34:06;;;;;;;10.48;3.33;;;;;;;0.56;100.00;102708.19;4986905;28;20054;-88
2022/01/21 06:36:31;;;;;;;17.98;3.72;;;;;;;0.56;100.00;102711.69;4967354;28;20038;-89
2022/01/21 06:38:57;;;;;;;18.95;3.67;;;;;;;0.50;100.00;102704.00;5003000;28;20049;-87
2022/01/21 06:41:22;;;;;;;12.15;4.50;;;;;;;0.51;100.00;102704.84;4986916;28;20041;-87
2022/01/21 06:43:48;;;;;;;10.32;3.80;;;;;;;0.51;100.00;102708.34;4991413;28;20125;-86
2022/01/21 06:46:13;;;;;;;13.90;3.15;;;;;;;0.41;100.00;102715.72;4993222;28;20484;-88
2022/01/21 06:48:39;;;;;;;13.57;3.33;;;;;;;0.40;100.00;102714.03;4984850;28;20181;-86
2022/01/21 06:51:04;;;;;;;13.55;3.63;;;;;;;0.39;100.00;102725.47;5004529;28;20513;-86
2022/01/21 06:53:30;;;;;;;14.38;3.17;;;;;;;0.33;100.00;102723.03;5003227;28;20043;-87
2022/01/21 06:55:56;;;;;;;13.38;4.13;;;;;;;0.36;100.00;102732.66;4979791;28;20058;-88
2022/01/21 06:58:22;;;;;;;14.30;3.53;;;;;;;0.30;100.00;102740.78;5000388;28;20047;-86
2022/01/21 07:00:47;;;;;;;12.90;4.05;;;;;;;0.28;100.00;102740.81;4966559;28;20046;-88
2022/01/21 07:03:13;;;;;;;18.30;5.47;;;;;;;0.27;100.00;102728.53;4981837;28;20096;-87
2022/01/21 07:05:38;;;;;;;16.98;5.10;;;;;;;0.27;100.00;102727.69;4967772;28;20053;-87
2022/01/21 07:08:04;;;;;;;21.33;4.60;;;;;;;0.28;100.00;102734.69;4979531;28;20042;-88
2022/01/21 07:10:30;;;;;;;18.50;5.10;;;;;;;0.26;100.00;102741.78;4970836;28;20090;-88
2022/01/21 07:12:56;;;;;;;18.50;5.97;;;;;;;0.26;100.00;102749.69;4982419;28;20125;-88
2022/01/21 07:15:22;;;;;;;21.65;4.68;;;;;;;0.29;100.00;102763.69;4984064;28;20444;-87
2022/01/21 07:17:49;;;;;;;16.35;5.30;;;;;;;0.26;100.00;102769.06;4950531;28;20050;-88
2022/01/21 07:20:15;;;;;;;16.60;5.13;;;;;;;0.25;100.00;102774.38;4966116;28;20043;-87
2022/01/21 07:22:43;;;;;;;16.05;4.53;;;;;;;0.25;100.00;102777.03;4986017;28;20392;-87
2022/01/21 07:25:08;;;;;;;14.52;5.03;;;;;;;0.26;100.00;102776.09;5003054;28;20046;-89
2022/01/21 07:27:34;;;;;;;25.20;8.02;;;;;;;0.26;100.00;102773.47;4993615;28;20045;-88
2022/01/21 07:30:00;;;;;;;20.65;9.23;;;;;;;0.29;100.00;102768.09;5002081;28;20438;-89
2022/01/21 07:32:27;;;;;;;12.30;4.80;;;;;;;0.29;100.00;102773.38;5000837;28;20068;-86
2022/01/21 07:34:52;;;;;;;18.83;7.60;;;;;;;0.26;100.00;102768.19;5003420;28;20041;-87
2022/01/21 07:37:18;;;;;;;19.42;9.15;;;;;;;0.28;100.00;102758.44;5003539;28;20046;-88
2022/01/21 07:39:44;;;;;;;17.63;6.28;;;;;;;0.29;100.00;102762.81;4992065;28;20042;-87
2022/01/21 07:42:10;;;;;;;13.68;5.47;;;;;;;0.25;100.00;102743.56;4988681;28;20133;-87
2022/01/21 07:44:35;;;;;;;15.20;5.30;;;;;;;0.32;100.00;102744.25;5002569;28;20267;-86
2022/01/21 07:47:01;;;;;;;19.60;7.03;;;;;;;0.36;100.00;102743.22;5002282;28;20045;-88
2022/01/21 07:49:26;;;;;;;15.63;5.10;;;;;;;0.39;100.00;102743.09;4989336;28;20516;-88
2022/01/21 07:51:52;;;;;;;18.42;4.90;;;;;;;0.40;100.00;102755.38;4986461;28;20057;-86
2022/01/21 07:54:17;;;;;;;14.38;3.92;;;;;;;0.41;100.00;102750.06;5033240;28;20057;-87
2022/01/21 07:56:43;;;;;;;13.88;4.00;;;;;;;0.47;100.00;102766.66;5017807;28;20112;-87
2022/01/21 07:59:12;;;;;;;24.15;5.18;;;;;;;0.50;100.00;102753.31;4986520;28;20140;-89
2022/01/21 08:01:38;;;;;;;13.48;4.93;;;;;;;0.49;100.00;102754.22;4986420;28;20131;-87
2022/01/21 08:04:03;;;;;;;14.15;4.40;;;;;;;0.53;100.00;102759.38;4997312;28;20077;-88
2022/01/21 08:06:30;;;;;;;13.43;4.70;;;;;;;0.55;100.00;102756.69;5000549;28;20806;-86
2022/01/21 08:08:55;;;;;;;11.98;4.10;;;;;;;0.54;100.00;102754.94;4999306;28;20416;-87
2022/01/21 08:11:21;;;;;;;14.45;3.40;;;;;;;0.57;100.00;102760.97;5004376;28;20052;-87
2022/01/21 08:13:47;;;;;;;12.65;2.80;;;;;;;0.55;100.00;102759.31;4999150;28;20045;-86
2022/01/21 08:16:12;;;;;;;12.32;3.70;;;;;;;0.57;100.00;102766.25;4988165;28;20514;-87
2022/01/21 08:18:38;;;;;;;12.75;3.60;;;;;;;0.58;100.00;102762.72;4982673;28;20517;-87
2022/01/21 08:21:03;;;;;;;11.63;3.17;;;;;;;0.55;100.00;102764.63;4997128;28;20046;-87
2022/01/21 08:23:28;;;;;;;12.23;3.58;;;;;;;0.56;100.00;102761.91;5001048;28;20071;-88
2022/01/21 08:25:54;;;;;;;12.82;3.15;;;;;;;0.56;100.00;102761.91;4986041;28;20046;-87
2022/01/21 08:28:19;;;;;;;11.50;2.85;;;;;;;0.57;100.00;102758.34;5004835;28;20136;-87
2022/01/21 08:30:45;;;;;;;14.88;2.83;;;;;;;0.62;100.00;102761.69;4987367;28;20053;-87
2022/01/21 08:33:11;;;;;;;10.38;2.33;;;;;;;0.60;100.00;102760.88;5000516;28;20438;-88
2022/01/21 08:35:36;;;;;;;13.18;3.10;;;;;;;0.61;100.00;102754.69;4989589;28;20038;-87
2022/01/21 08:38:03;;;;;;;10.50;2.55;;;;;;;0.57;100.00;102763.63;5001400;28;20056;-87
2022/01/21 08:40:29;;;;;;;8.18;3.05;;;;;;;0.60;100.00;102763.50;4990854;28;20535;-87
2022/01/21 08:42:54;;;;;;;13.05;4.35;;;;;;;0.59;100.00;102767.09;4974494;28;20123;-87
2022/01/21 08:45:21;;;;;;;15.40;4.18;;;;;;;0.59;100.00;102772.38;4978267;28;20046;-88
2022/01/21 08:47:48;;;;;;;20.42;8.55;;;;;;;0.61;100.00;102772.34;5002903;28;20041;-88
2022/01/21 08:50:18;;;;;;;16.38;6.72;;;;;;;0.64;100.00;102775.72;5000840;28;20046;-88
2022/01/21 08:52:45;;;;;;;15.55;6.20;;;;;;;0.68;100.00;102773.84;4995801;28;20354;-87
2022/01/21 08:55:17;;;;;;;14.43;4.55;;;;;;;0.70;100.00;102777.28;4982771;28;20544;-89
2022/01/21 08:57:45;;;;;;;10.10;4.13;;;;;;;0.73;100.00;102778.97;4993117;28;20411;-88
2022/01/21 09:00:20;;;;;;;13.55;4.32;;;;;;;0.79;100.00;102779.63;5015493;28;20050;-87
2022/01/21 09:02:46;;;;;;;15.27;4.65;;;;;;;0.86;100.00;102774.97;4999126;28;20169;-88
2022/01/21 09:05:13;;;;;;;9.80;3.88;;;;;;;0.89;100.00;102780.16;5007912;28;20113;-87
2022/01/21 09:07:39;;;;;;;12.68;4.60;;;;;;;0.94;100.00;102778.22;4986875;28;20091;-88
2022/01/21 09:10:06;;;;;;;13.27;4.78;;;;;;;1.02;100.00;102773.53;5000196;28;20046;-88
2022/01/21 09:12:32;;;;;;;10.98;3.03;;;;;;;1.08;100.00;102775.09;4994294;28;20042;-88
2022/01/21 09:14:57;;;;;;;9.23;3.60;;;;;;;1.15;100.00;102781.03;5002077;28;20478;-88
2022/01/21 09:17:23;;;;;;;12.63;3.70;;;;;;;1.17;100.00;102777.41;4982835;28;20053;-87
2022/01/21 09:19:48;;;;;;;12.63;2.70;;;;;;;1.20;100.00;102781.72;4987921;28;20052;-87
2022/01/21 09:22:14;;;;;;;12.43;3.65;;;;;;;1.28;100.00;102782.31;5001670;28;20057;-87
2022/01/21 09:24:39;;;;;;;12.88;3.50;;;;;;;1.33;100.00;102780.38;5005621;28;20156;-88
2022/01/21 09:27:05;;;;;;;9.00;3.25;;;;;;;1.34;100.00;102771.50;4987231;28;20038;-88
2022/01/21 09:29:32;;;;;;;18.42;3.67;;;;;;;1.36;100.00;102774.97;5000311;28;20038;-88
2022/01/21 09:31:58;;;;;;;9.65;2.60;;;;;;;1.46;100.00;102775.47;5002737;28;20081;-88
2022/01/21 09:34:25;;;;;;;17.52;4.68;;;;;;;1.51;100.00;102782.34;4997646;28;20125;-88
2022/01/21 09:36:52;;;;;;;15.63;4.13;;;;;;;1.60;100.00;102782.91;5007255;28;20045;-87
2022/01/21 09:39:18;;;;;;;10.23;3.10;;;;;;;1.62;100.00;102784.59;4983259;28;20277;-87
2022/01/21 09:41:43;;;;;;;10.90;3.35;;;;;;;1.72;100.00;102783.31;5007111;28;20038;-86
2022/01/21 09:44:14;;;;;;;7.70;2.22;;;;;;;1.80;100.00;102786.53;5023421;28;20479;-89
2022/01/21 09:46:44;;;;;;;11.90;2.85;;;;;;;1.83;100.00;102785.53;4996063;28;20038;-88
2022/01/21 09:49:28;;;;;;;9.52;2.60;;;;;;;1.84;100.00;102779.31;4989474;28;20076;-88
2022/01/21 09:52:03;;;;;;;12.52;3.30;;;;;;;1.85;100.00;102778.41;5014244;28;20067;-88
2022/01/21 09:54:32;;;;;;;14.10;3.10;;;;;;;1.97;100.00;102779.72;4993293;28;20038;-88
2022/01/21 09:56:59;;;;;;;12.75;2.72;;;;;;;2.05;100.00;102784.72;5002576;28;20054;-87
2022/01/21 09:59:29;;;;;;;8.10;2.33;;;;;;;2.06;100.00;102778.50;4989993;28;20096;-88
2022/01/21 10:01:58;;;;;;;11.75;3.10;;;;;;;2.08;100.00;102792.56;4999351;28;20065;-88
2022/01/21 10:04:26;;;;;;;10.48;2.80;;;;;;;2.08;100.00;102805.78;5005241;28;20514;-87
2022/01/21 10:06:55;;;;;;;11.15;3.17;;;;;;;2.10;100.00;102799.50;5004427;28;20065;-87
2022/01/21 10:09:22;;;;;;;10.68;2.95;;;;;;;2.13;100.00;102804.69;5007789;28;20451;-87
2022/01/21 10:11:49;;;;;;;11.05;2.67;;;;;;;2.14;100.00;102801.09;4997554;28;20054;-88
2022/01/21 10:14:41;;;;;;;12.65;2.47;;;;;;;2.17;100.00;102803.63;5011511;28;20103;-88
2022/01/21 10:17:08;;;;;;;16.35;2.97;;;;;;;2.20;100.00;102803.50;4968626;28;20057;-89
2022/01/21 10:19:36;;;;;;;10.00;2.17;;;;;;;2.24;100.00;102804.25;5003202;28;20056;-87
2022/01/21 10:22:12;;;;;;;12.13;2.92;;;;;;;2.30;100.00;102797.84;5015145;28;20037;-88
2022/01/21 10:24:54;;;;;;;14.68;3.00;;;;;;;2.35;100.00;102803.81;5002819;28;20108;-88
2022/01/21 10:27:41;;;;;;;11.40;3.05;;;;;;;2.42;100.00;102807.97;5010269;28;20077;-89
2022/01/21 10:30:25;;;;;;;11.27;2.53;;;;;;;2.45;100.00;102800.75;4999444;28;20053;-90
2022/01/21 10:32:52;;;;;;;11.07;2.58;;;;;;;2.48;100.00;102797.97;5001154;28;20054;-86
2022/01/21 10:35:25;;;;;;;10.85;2.53;;;;;;;2.53;100.00;102786.28;5007763;28;20129;-90
2022/01/21 10:37:51;;;;;;;12.93;2.83;;;;;;;2.57;100.00;102793.22;5003123;28;20050;-87
2022/01/21 10:40:21;;;;;;;12.20;3.13;;;;;;;2.62;100.00;102793.88;5001176;28;20581;-89
2022/01/21 10:42:47;;;;;;;13.00;3.42;;;;;;;2.68;100.00;102790.97;4990171;28;20045;-88
2022/01/21 10:45:13;;;;;;;14.23;5.90;;;;;;;2.70;100.00;102790.00;4970824;28;20130;-88
2022/01/21 10:47:46;;;;;;;11.50;3.50;;;;;;;2.77;100.00;102785.28;5034805;28;20140;-89
2022/01/21 10:50:14;;;;;;;10.00;3.83;;;;;;;2.81;100.00;102786.00;5003603;28;20054;-87
2022/01/21 10:52:45;;;;;;;12.18;3.60;;;;;;;2.87;100.00;102791.91;4990555;28;20045;-89
2022/01/21 10:55:33;;;;;;;13.75;3.95;;;;;;;2.90;100.00;102786.47;4989725;28;20380;-89
2022/01/21 10:58:21;;;;;;;7.82;2.72;;;;;;;2.92;100.00;102768.72;5001557;28;20125;-86
2022/01/21 11:01:03;;;;;;;10.82;2.53;;;;;;;2.99;100.00;102768.44;5027989;28;20111;-87
2022/01/21 11:03:30;;;;;;;10.02;2.63;;;;;;;3.05;100.00;102770.81;4991106;28;20510;-88
2022/01/21 11:06:14;;;;;;;12.18;2.92;;;;;;;3.08;100.00;102771.56;4998528;28;20054;-88
2022/01/21 11:08:40;;;;;;;12.82;3.53;;;;;;;3.10;100.00;102755.56;5004584;28;20402;-89
2022/01/21 11:11:05;;;;;;;10.63;2.60;;;;;;;3.11;100.00;102770.56;4999219;28;20046;-88
2022/01/21 11:13:33;;;;;;;11.52;3.05;;;;;;;3.13;100.00;102769.53;5001000;28;20049;-87
2022/01/21 11:16:05;;;;;;;8.05;2.63;;;;;;;3.13;100.00;102760.72;4989333;28;20045;-88
2022/01/21 11:18:31;;;;;;;10.30;3.03;;;;;;;3.15;100.00;102764.19;5005056;28;20042;-87
2022/01/21 11:21:05;;;;;;;9.30;3.50;;;;;;;3.19;100.00;102764.91;5008434;28;20117;-87
2022/01/21 11:23:32;;;;;;;12.15;4.15;;;;;;;3.21;100.00;102766.56;4988385;28;20065;-87
2022/01/21 11:26:04;;;;;;;13.68;3.70;;;;;;;3.23;100.00;102772.66;4987776;28;20054;-87
2022/01/21 11:28:37;;;;;;;10.43;2.80;;;;;;;3.25;100.00;102760.22;5004743;28;20502;-90
2022/01/21 11:31:03;;;;;;;13.38;2.97;;;;;;;3.28;100.00;102764.50;4990099;28;20054;-87
2022/01/21 11:33:29;;;;;;;14.80;2.95;;;;;;;3.31;100.00;102757.28;5006429;28;20038;-87
2022/01/21 11:35:55;;;;;;;24.75;9.05;;;;;;;3.35;100.00;102753.53;4999654;28;20612;-87
2022/01/21 11:38:23;;;;;;;20.05;7.60;;;;;;;3.41;100.00;102749.75;4984282;28;20349;-88
2022/01/21 11:40:51;;;;;;;22.33;7.20;;;;;;;3.48;100.00;102751.22;4995478;28;20054;-86
2022/01/21 11:43:18;;;;;;;17.98;5.40;;;;;;;3.52;100.00;102750.13;5000405;28;20042;-87
2022/01/21 11:50:52;;;;;;;12.75;4.40;;;;;;;3.61;100.00;102754.13;4994200;28;20042;-89
2022/01/21 11:53:51;;;;;;;12.15;3.40;;;;;;;3.64;100.00;102751.34;5017360;28;20402;-87
2022/01/21 11:56:43;;;;;;;12.63;2.72;;;;;;;3.67;100.00;102750.34;4993086;28;20058;-90
2022/01/21 12:02:21;;;;;;;11.32;2.78;;;;;;;3.71;100.00;102744.81;4987011;28;20068;-86
2022/01/21 12:04:49;;;;;;;12.45;3.05;;;;;;;3.75;100.00;102746.38;4995314;28;20084;-86
2022/01/21 12:07:34;;;;;;;11.88;2.70;;;;;;;3.78;100.00;102740.94;4987272;28;20577;-89
2022/01/21 12:10:04;;;;;;;14.75;2.55;;;;;;;3.82;100.00;102744.28;5000328;28;20108;-88
2022/01/21 12:12:50;;;;;;;12.45;2.63;;;;;;;3.86;100.00;102731.75;4990672;28;20044;-88
2022/01/21 12:15:28;;;;;;;12.68;3.15;;;;;;;3.88;100.00;102733.38;5011789;28;20430;-87
2022/01/21 12:21:01;;;;;;;12.05;3.22;;;;;;;3.93;100.00;102719.88;5002092;28;20253;-88
2022/01/21 12:23:28;;;;;;;9.68;3.10;;;;;;;3.96;100.00;102717.06;5004714;28;20105;-86
2022/01/21 12:26:09;;;;;;;11.25;3.22;;;;;;;4.01;100.00;102720.38;5005769;28;20111;-87
2022/01/21 12:28:43;;;;;;;10.40;3.83;;;;;;;4.05;100.00;102719.28;5021321;28;20064;-87